createdAt,value
2023-05-01T00:00:24.893Z,50.63
2023-05-01T00:02:52.325Z,46.83
2023-05-01T00:05:18.879Z,44.50
2023-05-01T00:07:45.503Z,42.50
2023-05-01T00:10:12.298Z,40.97
2023-05-01T00:12:38.826Z,41.67
2023-05-01T00:15:06.848Z,40.80
2023-05-01T00:17:33.543Z,45.97
2023-05-01T00:20:00.102Z,43.50
2023-05-01T00:22:45.063Z,42.67
2023-05-01T00:25:37.358Z,42.97
2023-05-01T00:28:03.988Z,43.27
2023-05-01T00:30:30.396Z,44.43
2023-05-01T00:32:57.100Z,41.50
2023-05-01T00:35:23.542Z,43.70
2023-05-01T00:37:49.917Z,44.50
2023-05-01T00:40:16.460Z,42.40
2023-05-01T00:42:42.933Z,44.80
2023-05-01T00:45:10.010Z,49.00
2023-05-01T00:47:36.694Z,43.43
2023-05-01T00:50:03.992Z,46.47
2023-05-01T00:52:30.638Z,44.23
2023-05-01T00:54:57.869Z,44.87
2023-05-01T00:57:25.566Z,46.13
2023-05-01T00:59:52.023Z,45.00
2023-05-01T01:02:18.368Z,44.97
2023-05-01T01:04:46.877Z,44.47
2023-05-01T01:07:34.877Z,45.00
2023-05-01T01:10:05.802Z,43.83
2023-05-01T01:12:39.585Z,44.30
2023-05-01T01:15:24.081Z,50.53
2023-05-01T01:18:18.002Z,43.57
2023-05-01T01:20:55.366Z,40.93
2023-05-01T01:23:40.365Z,41.83
2023-05-01T01:26:32.074Z,41.27
2023-05-01T01:29:21.836Z,46.70
2023-05-01T01:32:26.998Z,42.97
2023-05-01T01:35:02.435Z,38.23
2023-05-01T01:37:43.176Z,40.23
2023-05-01T01:40:22.677Z,40.03
2023-05-01T01:42:59.536Z,42.33
2023-05-01T01:45:33.247Z,48.13
2023-05-01T01:48:01.103Z,45.23
2023-05-01T01:50:28.479Z,39.87
2023-05-01T01:52:58.749Z,45.83
2023-05-01T01:55:27.748Z,43.40
2023-05-01T01:57:54.442Z,43.20
2023-05-01T02:00:22.008Z,42.83
2023-05-01T02:02:49.422Z,44.37
2023-05-01T02:05:18.315Z,45.07
2023-05-01T02:07:47.288Z,43.60
2023-05-01T02:10:14.935Z,45.90
2023-05-01T02:12:44.917Z,47.73
2023-05-01T02:15:11.661Z,51.23
2023-05-01T02:17:39.171Z,45.10
2023-05-01T02:20:07.965Z,45.53
2023-05-01T02:22:34.634Z,43.87
2023-05-01T02:25:01.952Z,42.07
2023-05-01T02:27:31.687Z,44.73
2023-05-01T02:29:58.801Z,47.03
2023-05-01T02:32:26.363Z,42.00
2023-05-01T02:34:52.990Z,42.20
2023-05-01T02:37:20.031Z,43.80
2023-05-01T02:39:46.610Z,39.40
2023-05-01T02:42:15.917Z,43.17
2023-05-01T02:44:49.142Z,43.93
2023-05-01T02:47:18.428Z,40.57
2023-05-01T02:49:46.966Z,41.20
2023-05-01T02:52:17.781Z,47.20
2023-05-01T02:54:45.437Z,43.90
2023-05-01T02:57:12.859Z,48.70
2023-05-01T02:59:42.505Z,41.70
2023-05-01T03:02:09.162Z,50.73
2023-05-01T03:04:35.782Z,44.30
2023-05-01T03:07:02.225Z,47.83
2023-05-01T03:09:28.786Z,43.37
2023-05-01T03:11:55.484Z,45.97
2023-05-01T03:14:22.267Z,45.47
2023-05-01T03:16:49.019Z,46.60
2023-05-01T03:19:16.667Z,52.03
2023-05-01T03:21:43.052Z,47.40
2023-05-01T03:24:10.153Z,54.83
2023-05-01T03:26:36.771Z,46.03
2023-05-01T03:29:03.880Z,46.30
2023-05-01T03:31:30.273Z,45.73
2023-05-01T03:33:56.687Z,44.37
2023-05-01T03:36:23.597Z,48.73
2023-05-01T03:38:50.141Z,50.80
2023-05-01T03:41:16.708Z,48.60
2023-05-01T03:43:43.188Z,48.53
2023-05-01T03:46:10.714Z,49.17
2023-05-01T03:48:52.982Z,47.23
2023-05-01T03:51:19.540Z,51.90
2023-05-01T03:53:46.017Z,50.67
2023-05-01T03:56:12.482Z,50.97
2023-05-01T03:58:39.105Z,52.13
2023-05-01T04:01:05.998Z,57.20
2023-05-01T04:03:32.588Z,53.53
2023-05-01T04:05:59.527Z,54.80
2023-05-01T04:08:26.019Z,57.37
2023-05-01T04:10:52.902Z,55.50
2023-05-01T04:13:19.542Z,58.13
2023-05-01T04:15:48.985Z,56.10
2023-05-01T04:18:15.903Z,57.17
2023-05-01T04:20:42.342Z,57.23
2023-05-01T04:23:09.574Z,55.60
2023-05-01T04:25:36.809Z,57.33
2023-05-01T04:28:03.357Z,56.00
2023-05-01T04:30:31.168Z,51.53
2023-05-01T04:33:00.493Z,53.53
2023-05-01T04:35:28.071Z,54.03
2023-05-01T04:37:54.849Z,54.27
2023-05-01T04:40:21.319Z,52.97
2023-05-01T04:42:48.277Z,55.37
2023-05-01T04:45:14.833Z,53.53
2023-05-01T04:47:41.481Z,52.13
2023-05-01T04:50:08.344Z,50.73
2023-05-01T04:52:35.954Z,52.40
2023-05-01T04:55:03.707Z,50.57
2023-05-01T04:57:30.161Z,52.73
2023-05-01T04:59:56.892Z,51.50
2023-05-01T05:02:24.004Z,53.70
2023-05-01T05:04:51.040Z,56.10
2023-05-01T05:07:17.841Z,54.10
2023-05-01T05:09:44.301Z,56.13
2023-05-01T05:12:10.954Z,51.37
2023-05-01T05:14:37.463Z,51.30
2023-05-01T05:17:03.959Z,52.77
2023-05-01T05:19:30.389Z,51.33
2023-05-01T05:21:57.946Z,48.63
2023-05-01T05:24:24.428Z,49.37
2023-05-01T05:26:51.185Z,49.03
2023-05-01T05:29:17.765Z,48.23
2023-05-01T05:31:44.189Z,48.40
2023-05-01T05:34:11.376Z,46.50
2023-05-01T05:36:37.889Z,46.30
2023-05-01T05:39:04.359Z,46.90
2023-05-01T05:41:31.104Z,46.73
2023-05-01T05:43:57.612Z,44.13
2023-05-01T05:46:24.647Z,47.60
2023-05-01T05:48:51.747Z,41.50
2023-05-01T05:51:19.344Z,42.83
2023-05-01T05:53:45.881Z,41.63
2023-05-01T05:56:12.814Z,40.60
2023-05-01T05:58:39.322Z,41.90
2023-05-01T06:01:07.079Z,36.80
2023-05-01T06:03:34.281Z,35.38
2023-05-01T06:06:01.306Z,35.60
2023-05-01T06:08:27.869Z,37.40
2023-05-01T06:10:54.485Z,35.37
2023-05-01T06:13:20.945Z,36.83
2023-05-01T06:15:47.531Z,35.45
2023-05-01T06:18:14.286Z,32.03
2023-05-01T06:20:41.033Z,32.10
2023-05-01T06:23:09.471Z,33.15
2023-05-01T06:25:37.211Z,32.13
2023-05-01T06:28:04.163Z,31.52
2023-05-01T06:30:30.892Z,30.23
2023-05-01T06:32:57.427Z,30.83
2023-05-01T06:35:24.467Z,34.15
2023-05-01T06:37:50.975Z,28.52
2023-05-01T06:40:17.528Z,27.90
2023-05-01T06:42:44.043Z,27.52
2023-05-01T06:45:10.656Z,27.48
2023-05-01T06:47:37.299Z,26.17
2023-05-01T06:50:05.673Z,25.25
2023-05-01T06:52:32.477Z,26.63
2023-05-01T06:54:58.906Z,22.30
2023-05-01T06:57:25.874Z,23.60
2023-05-01T06:59:52.450Z,19.55
2023-05-01T07:02:18.963Z,20.60
2023-05-01T07:04:45.808Z,20.23
2023-05-01T07:07:12.490Z,17.58
2023-05-01T07:09:38.935Z,16.52
2023-05-01T07:12:06.297Z,17.70
2023-05-01T07:14:34.773Z,16.15
2023-05-01T07:17:02.213Z,13.95
2023-05-01T07:19:28.884Z,15.82
2023-05-01T07:21:55.422Z,14.98
2023-05-01T07:24:21.893Z,15.18
2023-05-01T07:26:48.385Z,16.38
2023-05-01T07:29:16.399Z,15.40
2023-05-01T07:31:43.872Z,13.05
2023-05-01T07:34:10.556Z,13.85
2023-05-01T07:36:37.564Z,13.07
2023-05-01T07:39:04.329Z,14.50
2023-05-01T07:41:31.505Z,15.60
2023-05-01T07:44:01.179Z,17.75
2023-05-01T07:46:28.252Z,17.02
2023-05-01T07:48:54.928Z,13.15
2023-05-01T07:51:21.665Z,14.65
2023-05-01T07:53:48.731Z,13.70
2023-05-01T07:56:15.250Z,16.27
2023-05-01T07:58:42.621Z,15.57
2023-05-01T08:01:09.732Z,13.00
2023-05-01T08:03:36.600Z,14.57
2023-05-01T08:06:03.404Z,13.80
2023-05-01T08:08:29.927Z,14.35
2023-05-01T08:10:56.543Z,11.63
2023-05-01T08:13:23.279Z,15.25
2023-05-01T08:15:50.035Z,13.20
2023-05-01T08:18:20.503Z,11.00
2023-05-01T08:20:48.435Z,10.52
2023-05-01T08:23:18.550Z,12.23
2023-05-01T08:25:50.936Z,9.45
2023-05-01T08:28:18.311Z,11.35
2023-05-01T08:30:44.821Z,10.38
2023-05-01T08:33:11.443Z,10.23
2023-05-01T08:35:38.322Z,9.73
2023-05-01T08:38:04.866Z,10.80
2023-05-01T08:40:38.112Z,8.48
2023-05-01T08:43:05.027Z,8.60
2023-05-01T08:45:37.565Z,12.52
2023-05-01T08:48:07.765Z,13.40
2023-05-01T08:50:36.530Z,10.73
2023-05-01T08:53:04.221Z,8.82
2023-05-01T08:55:32.178Z,10.82
2023-05-01T08:57:59.853Z,7.50
2023-05-01T09:00:29.071Z,13.23
2023-05-01T09:02:56.290Z,10.50
2023-05-01T09:05:22.748Z,10.15
2023-05-01T09:07:49.463Z,12.73
2023-05-01T09:10:18.415Z,10.63
2023-05-01T09:12:47.601Z,10.00
2023-05-01T09:15:14.299Z,6.82
2023-05-01T09:17:42.433Z,10.13
2023-05-01T09:20:09.969Z,9.52
2023-05-01T09:22:36.857Z,9.23
2023-05-01T09:25:04.142Z,10.38
2023-05-01T09:27:35.422Z,9.18
2023-05-01T09:30:02.119Z,9.13
2023-05-01T09:32:28.858Z,8.27
2023-05-01T09:34:56.830Z,9.00
2023-05-01T09:37:28.556Z,14.05
2023-05-01T09:40:27.220Z,10.65
2023-05-01T09:42:56.475Z,10.85
2023-05-01T09:45:23.592Z,12.10
2023-05-01T09:47:50.488Z,11.73
2023-05-01T09:50:34.285Z,11.95
2023-05-01T09:53:01.959Z,10.07
2023-05-01T09:55:28.423Z,9.50
2023-05-01T09:57:54.862Z,9.07
2023-05-01T10:00:22.316Z,9.82
2023-05-01T10:02:49.959Z,9.02
2023-05-01T10:05:17.110Z,8.60
2023-05-01T10:08:01.059Z,10.40
2023-05-01T10:10:28.265Z,13.75
2023-05-01T10:12:55.227Z,11.00
2023-05-01T10:15:26.782Z,10.75
2023-05-01T10:17:54.589Z,9.20
2023-05-01T10:20:22.505Z,7.97
2023-05-01T10:22:49.848Z,9.45
2023-05-01T10:25:17.739Z,8.02
2023-05-01T10:27:44.413Z,10.13
2023-05-01T10:30:11.397Z,9.10
2023-05-01T10:32:38.777Z,8.75
2023-05-01T10:35:14.498Z,9.05
2023-05-01T10:37:47.538Z,8.38
2023-05-01T10:40:39.135Z,8.52
2023-05-01T10:43:26.152Z,8.45
2023-05-01T10:45:53.282Z,9.05
2023-05-01T10:48:38.588Z,8.38
2023-05-01T10:51:27.467Z,7.82
2023-05-01T10:54:13.392Z,7.13
2023-05-01T10:56:43.025Z,8.23
2023-05-01T10:59:09.723Z,7.13
2023-05-01T11:01:40.865Z,8.27
2023-05-01T11:04:27.910Z,8.95
2023-05-01T11:07:08.373Z,8.13
2023-05-01T11:09:46.934Z,7.32
2023-05-01T11:12:14.133Z,8.60
2023-05-01T11:15:03.628Z,6.70
2023-05-01T11:17:42.969Z,8.55
2023-05-01T11:20:11.095Z,7.90
2023-05-01T11:22:42.777Z,6.38
2023-05-01T11:25:20.648Z,7.05
2023-05-01T11:27:52.283Z,7.03
2023-05-01T11:30:19.046Z,6.80
2023-05-01T11:32:48.717Z,7.30
2023-05-01T11:35:20.876Z,6.72
2023-05-01T11:37:48.492Z,7.53
2023-05-01T11:40:27.032Z,8.10
2023-05-01T11:43:07.201Z,7.82
2023-05-01T11:45:36.620Z,6.72
2023-05-01T11:48:04.851Z,6.78
2023-05-01T11:50:36.316Z,7.28
2023-05-01T11:53:04.248Z,6.78
2023-05-01T11:55:34.495Z,9.65
2023-05-01T11:58:01.968Z,8.27
2023-05-01T12:00:30.120Z,7.43
2023-05-01T12:02:58.910Z,6.93
2023-05-01T12:05:26.815Z,9.77
2023-05-01T12:08:23.814Z,6.70
2023-05-01T12:10:58.889Z,6.53
2023-05-01T12:13:26.939Z,8.45
2023-05-01T12:15:54.736Z,6.35
2023-05-01T12:18:21.916Z,8.95
2023-05-01T12:20:54.284Z,6.53
2023-05-01T12:23:31.868Z,7.15
2023-05-01T12:25:58.581Z,5.43
2023-05-01T12:28:27.518Z,6.15
2023-05-01T12:30:57.813Z,7.03
2023-05-01T12:33:24.385Z,6.57
2023-05-01T12:35:51.418Z,6.47
2023-05-01T12:38:19.872Z,6.28
2023-05-01T12:40:57.651Z,7.82
2023-05-01T12:43:32.405Z,6.88
2023-05-01T12:45:59.843Z,6.10
2023-05-01T12:48:26.724Z,5.65
2023-05-01T12:50:57.002Z,9.70
2023-05-01T12:53:26.439Z,4.85
2023-05-01T12:55:59.478Z,6.90
2023-05-01T12:58:36.944Z,7.03
2023-05-01T13:01:03.513Z,8.20
2023-05-01T13:03:30.581Z,6.57
2023-05-01T13:05:59.401Z,7.22
2023-05-01T13:08:36.138Z,6.18
2023-05-01T13:11:13.622Z,5.82
2023-05-01T13:13:40.841Z,6.70
2023-05-01T13:16:12.841Z,6.18
2023-05-01T13:18:51.356Z,7.25
2023-05-01T13:21:22.364Z,5.10
2023-05-01T13:23:59.774Z,5.47
2023-05-01T13:26:31.386Z,4.00
2023-05-01T13:28:58.719Z,7.47
2023-05-01T13:31:25.703Z,5.88
2023-05-01T13:33:54.228Z,4.93
2023-05-01T13:36:26.311Z,5.07
2023-05-01T13:38:56.269Z,3.80
2023-05-01T13:41:25.793Z,5.25
2023-05-01T13:43:56.419Z,5.88
2023-05-01T13:46:23.920Z,4.15
2023-05-01T13:48:50.772Z,5.53
2023-05-01T13:51:22.798Z,6.13
2023-05-01T13:53:50.246Z,6.57
2023-05-01T13:56:16.730Z,4.88
2023-05-01T13:58:43.200Z,4.68
2023-05-01T14:01:18.961Z,4.25
2023-05-01T14:03:45.890Z,5.47
2023-05-01T14:06:14.805Z,3.35
2023-05-01T14:08:41.781Z,5.82
2023-05-01T14:11:09.487Z,5.35
2023-05-01T14:13:36.340Z,6.00
2023-05-01T14:16:10.360Z,4.97
2023-05-01T14:18:44.970Z,3.42
2023-05-01T14:21:16.706Z,3.80
2023-05-01T14:23:43.250Z,4.05
2023-05-01T14:26:11.513Z,5.47
2023-05-01T14:28:43.520Z,4.03
2023-05-01T14:31:15.991Z,5.70
2023-05-01T14:33:45.822Z,4.82
2023-05-01T14:36:13.367Z,5.13
2023-05-01T14:38:40.622Z,3.67
2023-05-01T14:41:08.913Z,4.82
2023-05-01T14:43:41.018Z,5.97
2023-05-01T14:46:07.539Z,4.80
2023-05-01T14:48:41.321Z,3.95
2023-05-01T14:51:12.596Z,3.95
2023-05-01T14:53:41.930Z,5.32
2023-05-01T14:56:08.739Z,5.50
2023-05-01T14:58:35.586Z,5.50
2023-05-01T15:01:04.911Z,5.57
2023-05-01T15:03:32.873Z,4.40
2023-05-01T15:05:59.671Z,4.63
2023-05-01T15:08:26.249Z,6.68
2023-05-01T15:10:52.990Z,4.28
2023-05-01T15:13:19.828Z,3.72
2023-05-01T15:15:46.308Z,6.95
2023-05-01T15:18:12.820Z,4.97
2023-05-01T15:20:39.393Z,5.72
2023-05-01T15:23:05.892Z,5.75
2023-05-01T15:25:32.564Z,5.95
2023-05-01T15:27:58.964Z,5.68
2023-05-01T15:30:25.909Z,5.07
2023-05-01T15:32:55.480Z,6.07
2023-05-01T15:35:23.600Z,3.90
2023-05-01T15:37:50.583Z,7.53
2023-05-01T15:40:17.189Z,5.32
2023-05-01T15:42:45.490Z,6.53
2023-05-01T15:45:11.886Z,5.03
2023-05-01T15:47:38.441Z,6.97
2023-05-01T15:50:09.362Z,4.72
2023-05-01T15:52:35.891Z,7.40
2023-05-01T15:55:02.356Z,6.63
2023-05-01T15:57:29.771Z,5.60
2023-05-01T15:59:56.676Z,5.85
2023-05-01T16:02:23.278Z,9.27
2023-05-01T16:04:49.775Z,6.53
2023-05-01T16:07:16.317Z,6.63
2023-05-01T16:09:42.937Z,4.47
2023-05-01T16:12:09.406Z,6.00
2023-05-01T16:14:39.373Z,5.80
2023-05-01T16:17:06.595Z,7.45
2023-05-01T16:19:33.095Z,8.10
2023-05-01T16:22:03.487Z,5.35
2023-05-01T16:24:34.403Z,6.70
2023-05-01T16:27:00.977Z,7.03
2023-05-01T16:29:27.865Z,4.80
2023-05-01T16:31:54.424Z,4.45
2023-05-01T16:34:25.406Z,6.65
2023-05-01T16:36:52.080Z,6.22
2023-05-01T16:39:21.520Z,7.90
2023-05-01T16:41:50.404Z,7.90
2023-05-01T16:44:18.846Z,7.60
2023-05-01T16:47:03.468Z,9.02
2023-05-01T16:49:30.105Z,6.97
2023-05-01T16:51:57.400Z,5.05
2023-05-01T16:54:25.209Z,5.32
2023-05-01T16:56:51.832Z,7.22
2023-05-01T16:59:18.622Z,4.90
2023-05-01T17:01:45.459Z,5.63
2023-05-01T17:04:13.238Z,6.63
2023-05-01T17:06:39.832Z,6.20
2023-05-01T17:09:06.431Z,6.85
2023-05-01T17:11:32.916Z,6.28
2023-05-01T17:13:59.445Z,6.32
2023-05-01T17:16:26.123Z,8.80
2023-05-01T17:18:52.921Z,5.57
2023-05-01T17:21:19.544Z,8.32
2023-05-01T17:23:46.113Z,10.43
2023-05-01T17:26:15.898Z,6.88
2023-05-01T17:28:44.765Z,6.30
2023-05-01T17:31:11.408Z,6.75
2023-05-01T17:33:38.092Z,9.40
2023-05-01T17:36:08.851Z,8.55
2023-05-01T17:38:40.070Z,9.32
2023-05-01T17:41:07.076Z,10.25
2023-05-01T17:43:33.767Z,15.32
2023-05-01T17:46:04.906Z,17.90
2023-05-01T17:48:31.469Z,13.07
2023-05-01T17:50:58.082Z,14.80
2023-05-01T17:53:25.336Z,12.73
2023-05-01T17:55:54.711Z,13.35
2023-05-01T17:58:21.933Z,9.32
2023-05-01T18:00:49.080Z,7.78
2023-05-01T18:03:15.888Z,7.30
2023-05-01T18:05:42.716Z,9.05
2023-05-01T18:08:10.911Z,12.73
2023-05-01T18:10:41.233Z,9.38
2023-05-01T18:13:07.844Z,11.95
2023-05-01T18:15:34.647Z,9.77
2023-05-01T18:18:01.651Z,7.10
2023-05-01T18:20:29.396Z,7.07
2023-05-01T18:22:56.308Z,6.72
2023-05-01T18:25:23.153Z,7.93
2023-05-01T18:27:49.714Z,8.57
2023-05-01T18:30:19.044Z,10.02
2023-05-01T18:32:49.269Z,8.02
2023-05-01T18:35:17.285Z,6.53
2023-05-01T18:37:44.349Z,5.82
2023-05-01T18:40:11.591Z,5.28
2023-05-01T18:42:41.063Z,5.85
2023-05-01T18:45:08.345Z,8.68
2023-05-01T18:47:34.829Z,6.32
2023-05-01T18:50:01.843Z,8.80
2023-05-01T18:52:29.829Z,8.65
2023-05-01T18:54:56.387Z,9.02
2023-05-01T18:57:22.939Z,7.03
2023-05-01T18:59:49.781Z,6.60
2023-05-01T19:02:16.539Z,7.28
2023-05-01T19:04:56.619Z,8.82
2023-05-01T19:07:28.192Z,11.68
2023-05-01T19:09:55.791Z,6.25
2023-05-01T19:12:22.991Z,9.95
2023-05-01T19:14:49.475Z,8.75
2023-05-01T19:17:15.921Z,8.35
2023-05-01T19:19:42.865Z,12.52
2023-05-01T19:22:09.322Z,8.10
2023-05-01T19:24:36.276Z,14.13
2023-05-01T19:27:03.813Z,9.68
2023-05-01T19:29:31.748Z,13.18
2023-05-01T19:32:03.397Z,14.82
2023-05-01T19:34:30.052Z,14.20
2023-05-01T19:36:56.832Z,14.30
2023-05-01T19:39:23.913Z,12.93
2023-05-01T19:41:50.696Z,12.38
2023-05-01T19:44:17.507Z,11.55
2023-05-01T19:46:44.372Z,12.10
2023-05-01T19:49:10.926Z,9.63
2023-05-01T19:51:37.391Z,10.25
2023-05-01T19:54:04.761Z,8.93
2023-05-01T19:56:31.673Z,11.18
2023-05-01T19:58:58.550Z,9.20
2023-05-01T20:01:25.164Z,8.95
2023-05-01T20:03:51.718Z,13.35
2023-05-01T20:06:18.195Z,12.73
2023-05-01T20:08:44.658Z,9.63
2023-05-01T20:11:11.289Z,8.77
2023-05-01T20:13:37.787Z,8.88
2023-05-01T20:16:04.526Z,13.18
2023-05-01T20:18:31.095Z,11.02
2023-05-01T20:20:57.899Z,12.00
2023-05-01T20:23:24.794Z,14.00
2023-05-01T20:25:55.008Z,14.30
2023-05-01T20:28:22.074Z,11.40
2023-05-01T20:30:48.770Z,12.15
2023-05-01T20:33:17.065Z,13.13
2023-05-01T20:35:43.805Z,13.98
2023-05-01T20:38:10.233Z,12.63
2023-05-01T20:40:40.738Z,14.38
2023-05-01T20:43:07.311Z,12.45
2023-05-01T20:45:33.886Z,12.20
2023-05-01T20:48:00.825Z,13.70
2023-05-01T20:50:27.702Z,12.32
2023-05-01T20:52:55.131Z,13.25
2023-05-01T20:55:22.846Z,19.23
2023-05-01T20:57:49.344Z,14.05
2023-05-01T21:00:15.887Z,15.00
2023-05-01T21:02:42.662Z,13.10
2023-05-01T21:05:10.261Z,15.23
2023-05-01T21:07:38.072Z,12.18
2023-05-01T21:10:10.120Z,12.07
2023-05-01T21:12:37.347Z,13.82
2023-05-01T21:15:04.317Z,15.25
2023-05-01T21:17:35.911Z,14.73
2023-05-01T21:20:05.599Z,12.85
2023-05-01T21:22:32.094Z,10.63
2023-05-01T21:25:00.238Z,11.88
2023-05-01T21:27:27.315Z,14.25
2023-05-01T21:29:59.131Z,12.05
2023-05-01T21:32:33.730Z,10.75
2023-05-01T21:35:00.681Z,9.77
2023-05-01T21:37:27.682Z,10.63
2023-05-01T21:39:54.242Z,13.07
2023-05-01T21:42:21.040Z,11.38
2023-05-01T21:44:47.472Z,11.02
2023-05-01T21:47:15.457Z,9.63
2023-05-01T21:49:41.963Z,13.50
2023-05-01T21:52:08.833Z,12.07
2023-05-01T21:54:38.518Z,12.52
2023-05-01T21:57:07.564Z,10.73
2023-05-01T21:59:36.379Z,11.30
2023-05-01T22:02:12.167Z,11.55
2023-05-01T22:04:38.750Z,11.63
2023-05-01T22:07:05.826Z,11.13
2023-05-01T22:09:33.311Z,10.65
2023-05-01T22:11:59.731Z,11.40
2023-05-01T22:14:33.626Z,10.35
2023-05-01T22:17:06.585Z,12.52
2023-05-01T22:19:33.068Z,10.45
2023-05-01T22:21:59.563Z,14.15
2023-05-01T22:24:26.056Z,14.88
2023-05-01T22:26:52.564Z,11.48
2023-05-01T22:29:19.010Z,11.88
2023-05-01T22:31:46.537Z,11.63
2023-05-01T22:34:13.321Z,11.80
2023-05-01T22:36:39.768Z,11.95
2023-05-01T22:39:06.306Z,13.02
2023-05-01T22:41:33.186Z,9.60
2023-05-01T22:44:00.842Z,11.00
2023-05-01T22:46:28.933Z,14.57
2023-05-01T22:48:55.535Z,14.93
2023-05-01T22:51:22.145Z,11.63
2023-05-01T22:53:48.533Z,12.60
2023-05-01T22:56:15.259Z,12.00
2023-05-01T22:58:42.677Z,12.90
2023-05-01T23:01:09.260Z,11.70
2023-05-01T23:03:38.635Z,23.63
2023-05-01T23:06:06.421Z,16.27
2023-05-01T23:08:34.051Z,12.20
2023-05-01T23:11:00.546Z,13.43
2023-05-01T23:13:28.215Z,15.68
2023-05-01T23:15:54.745Z,14.43
2023-05-01T23:18:30.665Z,14.18
2023-05-01T23:20:57.418Z,13.50
2023-05-01T23:23:29.379Z,18.48
2023-05-01T23:25:56.569Z,14.13
2023-05-01T23:28:25.022Z,16.75
2023-05-01T23:31:18.673Z,13.93
2023-05-01T23:33:45.341Z,15.05
2023-05-01T23:36:13.021Z,12.10
2023-05-01T23:38:40.364Z,14.63
2023-05-01T23:41:07.950Z,16.52
2023-05-01T23:43:38.606Z,15.15
2023-05-01T23:46:06.576Z,14.60
2023-05-01T23:48:36.292Z,13.82
2023-05-01T23:51:02.950Z,13.73
2023-05-01T23:53:29.575Z,14.90
2023-05-01T23:55:56.353Z,14.10
2023-05-01T23:58:23.460Z,13.05
